Time;durP1;ratioP1;P1;durP2;ratioP2;P2;SDS_P1;SDS_P2;PMS_P1;PMS_P2;Temp;Humidity;BMP_temperature;BMP_pressure;BME280_temperature;BME280_humidity;BME280_pressure;Samples;Min_cycle;Max_cycle;Signal;HPM_P1;HPM_P2
2022/03/15 00:01:04;;;;;;;12.30;11.00;;;4.40;58.80;;;;;;5113721;28;20019;-62
2022/03/15 00:03:30;;;;;;;14.25;11.98;;;4.40;59.40;;;;;;5095977;28;20028;-62
2022/03/15 00:05:56;;;;;;;13.02;10.63;;;4.40;58.60;;;;;;5122930;28;20035;-62
2022/03/15 00:08:22;;;;;;;12.82;10.07;;;4.40;58.70;;;;;;5123000;28;20227;-62
2022/03/15 00:10:48;;;;;;;9.95;7.22;;;4.40;58.70;;;;;;5108540;28;20048;-62
2022/03/15 00:13:15;;;;;;;13.35;10.90;;;4.30;58.80;;;;;;5110083;28;20027;-62
2022/03/15 00:15:42;;;;;;;12.98;10.75;;;4.30;59.10;;;;;;5100073;28;20107;-62
2022/03/15 00:18:08;;;;;;;13.10;11.05;;;4.30;59.20;;;;;;5085697;28;20087;-62
2022/03/15 00:20:34;;;;;;;14.73;11.40;;;4.30;59.20;;;;;;5109528;28;20032;-62
2022/03/15 00:23:00;;;;;;;12.40;11.10;;;4.30;59.20;;;;;;5122024;28;20467;-62
2022/03/15 00:25:27;;;;;;;13.45;11.88;;;4.30;59.40;;;;;;5122013;28;20104;-62
2022/03/15 00:27:54;;;;;;;16.67;12.30;;;4.30;59.30;;;;;;5122002;28;20012;-62
2022/03/15 00:30:22;;;;;;;14.30;11.60;;;4.30;59.30;;;;;;5122038;27;20099;-62
2022/03/15 00:32:49;;;;;;;14.30;11.07;;;4.30;59.30;;;;;;5108159;28;20020;-62
2022/03/15 00:35:18;;;;;;;12.35;11.05;;;4.30;59.30;;;;;;5121564;27;20111;-62
2022/03/15 00:37:49;;;;;;;17.05;12.68;;;4.30;59.30;;;;;;5103728;28;20103;-62
2022/03/15 00:40:17;;;;;;;16.67;12.10;;;4.30;59.30;;;;;;5111835;28;20458;-62
2022/03/15 00:42:46;;;;;;;13.18;11.65;;;4.20;59.40;;;;;;5115842;28;20024;-62
2022/03/15 00:45:12;;;;;;;13.45;10.95;;;4.20;59.30;;;;;;5113637;28;20012;-62
2022/03/15 00:47:38;;;;;;;15.70;12.80;;;4.20;59.40;;;;;;5094452;28;20022;-62
2022/03/15 00:50:04;;;;;;;17.35;13.02;;;4.20;59.50;;;;;;5121795;28;20039;-62
2022/03/15 00:52:30;;;;;;;14.75;12.23;;;4.20;59.50;;;;;;5107936;28;20079;-62
2022/03/15 00:54:55;;;;;;;15.45;12.40;;;4.20;59.50;;;;;;5111773;28;20089;-62
2022/03/15 00:57:21;;;;;;;14.38;12.88;;;4.20;59.60;;;;;;5120874;28;20022;-62
2022/03/15 00:59:47;;;;;;;15.10;13.30;;;4.20;59.60;;;;;;5112526;28;20024;-62
2022/03/15 01:02:12;;;;;;;15.25;13.50;;;4.20;59.60;;;;;;5113699;28;20043;-62
2022/03/15 01:04:38;;;;;;;16.70;13.45;;;4.20;59.70;;;;;;5109425;28;20479;-62
2022/03/15 01:07:04;;;;;;;17.00;13.48;;;4.20;59.70;;;;;;5120388;28;20020;-62
2022/03/15 01:09:30;;;;;;;17.02;13.90;;;4.20;60.40;;;;;;5120713;28;20031;-62
2022/03/15 01:11:57;;;;;;;15.23;13.40;;;4.20;59.90;;;;;;5113634;28;20053;-62
2022/03/15 01:14:25;;;;;;;15.45;13.10;;;4.20;59.90;;;;;;5112696;28;20024;-61
2022/03/15 01:16:51;;;;;;;15.90;12.68;;;4.20;59.90;;;;;;5096268;28;20024;-62
2022/03/15 01:19:16;;;;;;;20.13;12.68;;;4.20;59.80;;;;;;5107999;28;20361;-62
2022/03/15 01:21:42;;;;;;;15.00;9.43;;;4.30;60.40;;;;;;5119220;28;20080;-62
2022/03/15 01:24:08;;;;;;;13.65;11.63;;;4.20;59.70;;;;;;5120778;28;20028;-62
2022/03/15 01:26:37;;;;;;;14.73;13.15;;;4.20;59.90;;;;;;5118971;28;20051;-62
2022/03/15 01:29:03;;;;;;;14.32;11.93;;;4.20;59.80;;;;;;5097146;28;20020;-62
2022/03/15 01:31:29;;;;;;;14.35;9.20;;;4.20;59.70;;;;;;5120443;28;20027;-62
2022/03/15 01:33:55;;;;;;;14.55;12.95;;;4.20;59.80;;;;;;5120262;28;20032;-62
2022/03/15 01:36:21;;;;;;;14.68;8.57;;;4.20;59.90;;;;;;5119105;28;20516;-62
2022/03/15 01:38:48;;;;;;;13.90;11.93;;;4.20;59.90;;;;;;5107461;28;20081;-62
2022/03/15 01:41:14;;;;;;;15.52;13.50;;;4.10;60.70;;;;;;5119409;28;20020;-62
2022/03/15 01:43:41;;;;;;;15.32;13.35;;;4.10;60.00;;;;;;5115394;28;20376;-62
2022/03/15 01:46:07;;;;;;;13.02;8.65;;;4.20;60.10;;;;;;5094951;28;20021;-62
2022/03/15 01:48:34;;;;;;;16.27;13.25;;;4.10;60.10;;;;;;5112364;28;20020;-62
2022/03/15 01:50:59;;;;;;;15.63;13.82;;;4.00;60.10;;;;;;5112547;28;20028;-62
2022/03/15 01:53:26;;;;;;;14.18;12.25;;;4.00;60.10;;;;;;5091030;28;20432;-62
2022/03/15 01:55:52;;;;;;;17.13;14.02;;;4.00;60.30;;;;;;5119987;28;20027;-62
2022/03/15 01:58:18;;;;;;;15.88;13.98;;;4.00;60.30;;;;;;5119581;28;20609;-62
2022/03/15 02:00:46;;;;;;;14.60;13.10;;;4.00;60.30;;;;;;5103289;28;20050;-62
2022/03/15 02:03:12;;;;;;;15.40;13.00;;;4.00;60.40;;;;;;5111796;28;20048;-62
2022/03/15 02:05:38;;;;;;;16.33;13.40;;;4.00;60.40;;;;;;5099533;28;20023;-62
2022/03/15 02:08:14;;;;;;;15.85;12.93;;;3.90;60.40;;;;;;5116851;28;20030;-62
2022/03/15 02:10:40;;;;;;;15.65;13.52;;;3.90;60.40;;;;;;5119349;28;20027;-62
2022/03/15 02:13:07;;;;;;;14.80;13.20;;;3.90;60.60;;;;;;5120124;28;20030;-62
2022/03/15 02:15:33;;;;;;;16.75;14.02;;;3.90;60.50;;;;;;5091387;28;20025;-62
2022/03/15 02:17:59;;;;;;;14.77;12.48;;;3.90;60.60;;;;;;5109940;28;20111;-62
2022/03/15 02:20:26;;;;;;;15.18;9.00;;;3.90;60.70;;;;;;5108536;28;20076;-62
2022/03/15 02:22:52;;;;;;;16.08;12.93;;;3.80;60.60;;;;;;5105743;28;20020;-62
2022/03/15 02:25:17;;;;;;;14.55;12.40;;;3.80;60.90;;;;;;5119085;28;20360;-62
2022/03/15 02:27:43;;;;;;;16.90;12.90;;;3.80;60.90;;;;;;5117639;28;20069;-62
2022/03/15 02:30:10;;;;;;;16.42;13.20;;;3.80;61.60;;;;;;5107099;28;20016;-62
2022/03/15 02:32:36;;;;;;;16.25;13.20;;;3.80;61.00;;;;;;5119128;28;20077;-62
2022/03/15 02:35:02;;;;;;;13.88;12.07;;;3.80;61.10;;;;;;5099065;28;20443;-62
2022/03/15 02:37:28;;;;;;;14.95;13.35;;;3.80;61.00;;;;;;5102616;28;20042;-62
2022/03/15 02:39:54;;;;;;;14.48;12.73;;;3.80;61.10;;;;;;5119068;28;20032;-62
2022/03/15 02:42:20;;;;;;;15.13;13.23;;;3.80;61.10;;;;;;5118995;28;20020;-62
2022/03/15 02:44:46;;;;;;;15.68;13.18;;;3.80;61.20;;;;;;5118898;28;20024;-62
2022/03/15 02:47:12;;;;;;;16.33;14.38;;;3.80;61.30;;;;;;5110941;28;20476;-62
2022/03/15 02:49:38;;;;;;;16.23;13.10;;;3.80;61.30;;;;;;5112474;28;20067;-62
2022/03/15 02:52:04;;;;;;;13.45;11.82;;;3.80;61.50;;;;;;5105978;28;20020;-62
2022/03/15 02:54:30;;;;;;;15.95;8.50;;;3.80;61.50;;;;;;5113726;28;20024;-62
2022/03/15 02:56:56;;;;;;;14.55;11.98;;;3.70;61.30;;;;;;5118628;28;20096;-62
2022/03/15 02:59:22;;;;;;;14.85;12.45;;;3.70;61.70;;;;;;5109429;28;20020;-62
2022/03/15 03:01:49;;;;;;;14.77;12.25;;;3.70;61.70;;;;;;5117184;28;20035;-62
2022/03/15 03:04:15;;;;;;;17.38;13.40;;;3.70;61.70;;;;;;5118667;28;20043;-62
2022/03/15 03:06:42;;;;;;;15.15;13.15;;;3.70;61.60;;;;;;5116638;28;20023;-62
2022/03/15 03:09:10;;;;;;;15.20;13.23;;;3.70;61.60;;;;;;5111332;28;20054;-61
2022/03/15 03:11:36;;;;;;;14.43;8.88;;;3.70;61.50;;;;;;5117638;28;20028;-62
2022/03/15 03:14:06;;;;;;;13.77;12.38;;;3.60;61.70;;;;;;5100560;28;20031;-62
2022/03/15 03:16:32;;;;;;;14.30;11.98;;;3.60;61.80;;;;;;5093842;28;20020;-62
2022/03/15 03:18:58;;;;;;;17.95;14.05;;;3.70;61.90;;;;;;5099583;28;20062;-62
2022/03/15 03:21:28;;;;;;;15.35;13.35;;;3.60;61.80;;;;;;5111818;28;20028;-62
2022/03/15 03:23:55;;;;;;;15.85;12.77;;;3.70;61.90;;;;;;5116346;28;20031;-62
2022/03/15 03:26:23;;;;;;;15.07;13.43;;;3.70;61.90;;;;;;5098900;28;20024;-62
2022/03/15 03:28:48;;;;;;;18.00;14.40;;;3.70;62.00;;;;;;5111212;28;20016;-62
2022/03/15 03:31:15;;;;;;;16.52;13.70;;;3.70;62.00;;;;;;5110419;28;20039;-62
2022/03/15 03:33:41;;;;;;;17.35;14.07;;;3.60;62.00;;;;;;5108816;28;20364;-62
2022/03/15 03:36:07;;;;;;;16.77;13.02;;;3.60;61.90;;;;;;5117259;28;20062;-62
2022/03/15 03:38:33;;;;;;;16.25;13.90;;;3.70;62.10;;;;;;5116942;28;20530;-62
2022/03/15 03:40:59;;;;;;;16.00;13.75;;;3.60;62.00;;;;;;5117273;28;20451;-62
2022/03/15 03:43:25;;;;;;;16.88;13.63;;;3.60;62.20;;;;;;5111216;28;20541;-62
2022/03/15 03:45:51;;;;;;;16.95;14.07;;;3.60;62.10;;;;;;5107733;28;20024;-62
2022/03/15 03:48:16;;;;;;;20.05;14.75;;;3.60;62.30;;;;;;5110416;28;20022;-62
2022/03/15 03:50:43;;;;;;;15.30;13.70;;;3.60;62.40;;;;;;5096998;28;20020;-62
2022/03/15 03:53:09;;;;;;;20.13;14.02;;;3.60;62.30;;;;;;5097382;28;20055;-62
2022/03/15 03:55:35;;;;;;;18.13;14.15;;;3.60;62.30;;;;;;5112797;28;20410;-62
2022/03/15 03:58:01;;;;;;;16.88;13.73;;;3.60;62.50;;;;;;5110408;28;20028;-62
2022/03/15 04:00:27;;;;;;;16.20;13.80;;;3.60;62.50;;;;;;5112436;28;20390;-62
2022/03/15 04:02:54;;;;;;;19.95;14.95;;;3.60;62.40;;;;;;5116238;28;20020;-62
2022/03/15 04:05:20;;;;;;;17.55;15.07;;;3.60;62.50;;;;;;5112754;28;20016;-62
2022/03/15 04:07:46;;;;;;;17.10;15.23;;;3.60;62.60;;;;;;5106928;28;20024;-62
2022/03/15 04:10:12;;;;;;;16.80;13.93;;;3.60;63.20;;;;;;5112509;28;20077;-62
2022/03/15 04:12:39;;;;;;;16.55;13.52;;;3.60;62.70;;;;;;5096449;28;20050;-62
2022/03/15 04:15:05;;;;;;;14.85;13.23;;;3.60;62.60;;;;;;5090383;28;20032;-62
2022/03/15 04:17:32;;;;;;;15.98;14.27;;;3.60;62.60;;;;;;5081731;28;20079;-62
2022/03/15 04:19:58;;;;;;;17.20;14.65;;;3.60;62.60;;;;;;5108927;28;20425;-62
2022/03/15 04:22:24;;;;;;;17.75;15.85;;;3.60;62.70;;;;;;5108506;28;20153;-62
2022/03/15 04:24:49;;;;;;;16.70;14.23;;;3.60;62.70;;;;;;5115490;28;20027;-62
2022/03/15 04:27:16;;;;;;;17.23;13.77;;;3.60;62.80;;;;;;5120187;28;20063;-62
2022/03/15 04:29:42;;;;;;;19.67;13.93;;;3.60;62.80;;;;;;5119721;28;20099;-62
2022/03/15 04:32:08;;;;;;;19.42;13.57;;;3.60;62.80;;;;;;5117492;27;20035;-62
2022/03/15 04:34:34;;;;;;;16.67;13.80;;;3.60;62.80;;;;;;5093288;28;20038;-62
2022/03/15 04:37:00;;;;;;;18.30;14.15;;;3.70;62.80;;;;;;5119580;28;20126;-62
2022/03/15 04:39:26;;;;;;;16.80;13.90;;;3.60;62.70;;;;;;5118969;28;20028;-64
2022/03/15 04:41:51;;;;;;;17.90;14.50;;;3.70;62.80;;;;;;5118299;27;20033;-62
2022/03/15 04:44:18;;;;;;;15.55;13.15;;;3.70;62.80;;;;;;5113556;28;20076;-62
2022/03/15 04:46:44;;;;;;;12.73;9.73;;;3.80;62.90;;;;;;5102212;28;20028;-62
2022/03/15 04:49:10;;;;;;;16.98;12.63;;;3.70;62.80;;;;;;5117124;28;20027;-62
2022/03/15 04:51:36;;;;;;;15.95;9.60;;;3.80;62.90;;;;;;5109953;28;20020;-62
2022/03/15 04:54:02;;;;;;;11.52;8.02;;;3.80;63.00;;;;;;5117877;28;20020;-62
2022/03/15 04:56:28;;;;;;;13.80;12.23;;;3.80;63.00;;;;;;5117901;28;20157;-62
2022/03/15 04:58:54;;;;;;;15.10;12.80;;;4.00;63.10;;;;;;5114567;28;20136;-62
2022/03/15 05:01:19;;;;;;;15.57;13.10;;;4.10;62.80;;;;;;5110554;28;20055;-62
2022/03/15 05:03:45;;;;;;;16.15;13.55;;;4.20;62.60;;;;;;5118286;28;20019;-65
2022/03/15 05:06:11;;;;;;;20.17;10.43;;;4.30;62.40;;;;;;5118050;28;20019;-62
2022/03/15 05:08:37;;;;;;;17.33;13.50;;;4.30;62.20;;;;;;5102932;28;20029;-62
2022/03/15 05:11:06;;;;;;;12.75;8.35;;;4.40;62.40;;;;;;5097585;28;20100;-62
2022/03/15 05:13:45;;;;;;;14.93;12.50;;;4.50;62.40;;;;;;5109563;28;20055;-62
2022/03/15 05:16:17;;;;;;;13.18;8.13;;;4.60;62.40;;;;;;5094775;28;20032;-62
2022/03/15 05:18:45;;;;;;;15.88;12.93;;;4.60;62.40;;;;;;5114820;28;20107;-62
2022/03/15 05:21:16;;;;;;;15.63;9.82;;;4.80;62.50;;;;;;5117525;28;20024;-62
2022/03/15 05:23:43;;;;;;;18.80;13.70;;;4.80;62.30;;;;;;5117720;28;20020;-62
2022/03/15 05:26:09;;;;;;;15.80;12.48;;;5.00;62.20;;;;;;5105191;28;20028;-62
2022/03/15 05:28:35;;;;;;;17.40;10.15;;;5.10;61.80;;;;;;5111056;28;20487;-62
2022/03/15 05:31:00;;;;;;;14.70;12.85;;;5.20;61.70;;;;;;5108157;28;20019;-62
2022/03/15 05:33:28;;;;;;;15.35;13.15;;;5.30;61.30;;;;;;5117051;28;20443;-62
2022/03/15 05:35:54;;;;;;;14.82;9.50;;;5.40;60.90;;;;;;5116703;28;20024;-62
2022/03/15 05:38:20;;;;;;;14.68;12.55;;;5.50;61.00;;;;;;5103348;28;20031;-62
2022/03/15 05:40:45;;;;;;;15.90;13.15;;;5.70;61.20;;;;;;5106501;28;20032;-62
2022/03/15 05:43:11;;;;;;;15.40;12.23;;;5.90;60.30;;;;;;5094476;28;20087;-62
2022/03/15 05:45:40;;;;;;;15.15;12.63;;;6.00;59.70;;;;;;5087830;28;20029;-62
2022/03/15 05:48:06;;;;;;;16.17;10.32;;;6.20;59.30;;;;;;5109481;28;20233;-62
2022/03/15 05:50:32;;;;;;;16.88;12.90;;;6.30;59.30;;;;;;5117071;28;20023;-62
2022/03/15 05:53:03;;;;;;;16.35;13.23;;;6.40;59.00;;;;;;5116728;27;20024;-62
2022/03/15 05:55:30;;;;;;;16.50;10.48;;;6.60;58.50;;;;;;5096859;27;20028;-62
2022/03/15 05:57:56;;;;;;;14.43;11.68;;;6.80;58.30;;;;;;5085079;28;20040;-62
2022/03/15 06:00:22;;;;;;;14.63;12.45;;;7.10;58.20;;;;;;5077137;28;20032;-62
2022/03/15 06:02:48;;;;;;;14.55;12.63;;;7.40;57.30;;;;;;5106830;28;20027;-62
2022/03/15 06:05:14;;;;;;;15.05;12.60;;;7.70;56.70;;;;;;5113792;28;20519;-62
2022/03/15 06:07:47;;;;;;;14.30;12.15;;;7.90;56.00;;;;;;5095554;28;20103;-62
2022/03/15 06:10:13;;;;;;;18.77;13.38;;;8.10;55.70;;;;;;5107005;28;20073;-62
2022/03/15 06:12:39;;;;;;;14.07;11.85;;;8.30;55.40;;;;;;5089036;28;20024;-62
2022/03/15 06:15:05;;;;;;;16.77;10.48;;;8.70;55.20;;;;;;5083406;28;20028;-62
2022/03/15 06:17:32;;;;;;;14.15;12.35;;;9.00;55.10;;;;;;5089552;28;20021;-62
2022/03/15 06:19:58;;;;;;;16.05;11.98;;;9.40;54.70;;;;;;5096726;28;20232;-62
2022/03/15 06:22:24;;;;;;;15.05;11.98;;;9.70;54.00;;;;;;5079906;28;20090;-62
2022/03/15 06:24:50;;;;;;;18.00;13.63;;;9.90;53.50;;;;;;5086275;28;20044;-63
2022/03/15 06:27:15;;;;;;;16.55;13.02;;;10.20;52.90;;;;;;5090086;28;20028;-63
2022/03/15 06:29:41;;;;;;;16.75;12.88;;;10.40;52.40;;;;;;5084510;28;20028;-63
2022/03/15 06:32:07;;;;;;;17.52;13.23;;;10.50;51.70;;;;;;5081107;28;20033;-65
2022/03/15 06:34:33;;;;;;;16.05;10.65;;;10.30;50.90;;;;;;5100541;28;20023;-64
2022/03/15 06:37:00;;;;;;;14.38;11.57;;;10.00;51.20;;;;;;5093031;28;20093;-64
2022/03/15 06:39:26;;;;;;;14.95;10.63;;;9.60;51.60;;;;;;5091035;28;20059;-64
2022/03/15 06:41:54;;;;;;;16.55;9.77;;;9.10;52.10;;;;;;5090437;28;20063;-64
2022/03/15 06:44:20;;;;;;;14.40;9.90;;;8.70;52.90;;;;;;5078907;28;20782;-64
2022/03/15 06:46:45;;;;;;;15.60;12.52;;;8.30;53.60;;;;;;5082953;28;20024;-66
2022/03/15 06:49:11;;;;;;;15.88;11.90;;;7.90;54.30;;;;;;5084441;28;20032;-65
2022/03/15 06:51:37;;;;;;;17.48;12.77;;;7.60;54.70;;;;;;5080397;28;20028;-65
2022/03/15 06:54:02;;;;;;;17.38;14.23;;;7.40;55.40;;;;;;5086771;28;20385;-67
2022/03/15 06:56:28;;;;;;;16.13;13.80;;;7.30;56.10;;;;;;5086839;28;20028;-65
2022/03/15 06:58:54;;;;;;;15.05;13.07;;;7.20;56.60;;;;;;5092434;28;20032;-64
2022/03/15 07:01:20;;;;;;;16.08;13.07;;;7.10;56.80;;;;;;5078895;28;20024;-64
2022/03/15 07:03:46;;;;;;;16.25;13.10;;;7.00;57.10;;;;;;5071010;28;20027;-64
2022/03/15 07:06:12;;;;;;;13.55;9.45;;;6.90;57.00;;;;;;5082743;28;20024;-64
2022/03/15 07:08:37;;;;;;;21.23;15.95;;;6.80;57.20;;;;;;5082490;28;20108;-64
2022/03/15 07:11:03;;;;;;;17.27;13.85;;;6.80;57.70;;;;;;5080263;28;20532;-63
2022/03/15 07:13:29;;;;;;;16.00;12.85;;;6.80;57.90;;;;;;5079812;28;20090;-63
2022/03/15 07:15:54;;;;;;;17.23;13.57;;;6.80;58.00;;;;;;5080304;28;20038;-65
2022/03/15 07:18:21;;;;;;;15.10;13.05;;;6.80;58.20;;;;;;5082579;28;20023;-64
2022/03/15 07:20:46;;;;;;;16.15;13.15;;;6.80;58.30;;;;;;5081499;28;20503;-64
2022/03/15 07:23:13;;;;;;;16.08;13.27;;;6.70;58.40;;;;;;5079586;28;20052;-64
2022/03/15 07:25:38;;;;;;;17.60;9.65;;;6.70;58.60;;;;;;5073780;28;20020;-63
2022/03/15 07:28:04;;;;;;;15.27;12.82;;;6.70;58.70;;;;;;5073339;28;20040;-63
2022/03/15 07:30:30;;;;;;;16.85;13.48;;;6.60;59.00;;;;;;5079317;28;20392;-63
2022/03/15 07:32:59;;;;;;;17.70;13.30;;;6.70;59.10;;;;;;5077236;28;20519;-64
2022/03/15 07:35:25;;;;;;;12.70;8.95;;;6.60;59.20;;;;;;5073117;28;20038;-63
2022/03/15 07:37:53;;;;;;;13.68;7.63;;;6.60;59.30;;;;;;5080514;28;20037;-63
2022/03/15 07:40:19;;;;;;;14.48;11.88;;;6.50;59.40;;;;;;5071395;28;20536;-64
2022/03/15 07:42:46;;;;;;;15.13;12.13;;;6.50;59.70;;;;;;5075154;28;20137;-64
2022/03/15 07:45:12;;;;;;;13.40;11.98;;;6.60;59.80;;;;;;5076384;28;20032;-64
2022/03/15 07:47:38;;;;;;;16.48;13.50;;;6.60;59.90;;;;;;5086613;28;20051;-64
2022/03/15 07:50:05;;;;;;;14.95;12.85;;;6.60;59.80;;;;;;5088160;28;20028;-65
2022/03/15 07:52:30;;;;;;;15.50;12.45;;;6.60;59.80;;;;;;5078668;28;20078;-64
2022/03/15 07:54:56;;;;;;;16.08;13.00;;;6.60;59.90;;;;;;5080228;28;20028;-63
2022/03/15 07:57:21;;;;;;;15.45;12.55;;;6.60;59.90;;;;;;5078979;28;20032;-63
2022/03/15 07:59:48;;;;;;;15.40;13.10;;;6.60;60.00;;;;;;5081271;28;20048;-63
2022/03/15 08:02:15;;;;;;;16.35;13.13;;;6.60;60.10;;;;;;5077409;28;20040;-63
2022/03/15 08:04:41;;;;;;;16.75;14.40;;;6.60;60.10;;;;;;5082265;28;20127;-63
2022/03/15 08:07:07;;;;;;;16.35;13.43;;;6.60;60.30;;;;;;5079862;28;20027;-62
2022/03/15 08:09:34;;;;;;;15.13;13.13;;;6.60;60.20;;;;;;5083515;28;20032;-63
2022/03/15 08:12:00;;;;;;;13.57;8.55;;;6.60;60.20;;;;;;5080859;28;20020;-64
2022/03/15 08:14:25;;;;;;;15.70;12.77;;;6.60;60.20;;;;;;5091706;28;20364;-64
2022/03/15 08:16:51;;;;;;;17.05;14.40;;;6.60;61.00;;;;;;5075199;28;20063;-64
2022/03/15 08:19:17;;;;;;;17.17;14.30;;;6.60;60.40;;;;;;5077287;28;20114;-64
2022/03/15 08:21:43;;;;;;;13.40;9.05;;;6.70;60.40;;;;;;5081764;28;20059;-64
2022/03/15 08:24:09;;;;;;;13.70;12.20;;;6.60;60.30;;;;;;5084619;28;20501;-64
2022/03/15 08:26:35;;;;;;;15.95;12.75;;;6.60;60.50;;;;;;5080294;28;20028;-64
2022/03/15 08:29:01;;;;;;;14.45;12.60;;;6.70;60.60;;;;;;5077011;28;21770;-64
2022/03/15 08:31:26;;;;;;;14.60;12.07;;;6.70;60.60;;;;;;5076831;28;20066;-63
2022/03/15 08:33:52;;;;;;;14.85;8.75;;;6.70;60.70;;;;;;5077895;28;20526;-63
2022/03/15 08:36:18;;;;;;;16.42;12.82;;;6.70;60.60;;;;;;5076338;28;20047;-63
2022/03/15 08:38:44;;;;;;;14.77;12.40;;;6.70;60.90;;;;;;5079465;28;20165;-63
2022/03/15 08:41:11;;;;;;;14.00;11.63;;;6.70;61.00;;;;;;5076374;28;20035;-64
2022/03/15 08:43:36;;;;;;;14.55;11.50;;;6.70;60.90;;;;;;5079370;28;20039;-64
2022/03/15 08:46:02;;;;;;;15.68;12.68;;;6.70;60.70;;;;;;5078143;28;20036;-64
2022/03/15 08:48:28;;;;;;;16.10;11.75;;;6.70;60.80;;;;;;5079621;28;20403;-63
2022/03/15 08:50:54;;;;;;;15.05;8.45;;;6.70;60.90;;;;;;5075227;28;20042;-64
2022/03/15 08:53:20;;;;;;;13.18;11.50;;;6.70;61.00;;;;;;5081586;28;20027;-64
2022/03/15 08:55:46;;;;;;;14.25;12.10;;;6.70;61.20;;;;;;5106234;27;20063;-64
2022/03/15 08:58:12;;;;;;;15.88;12.48;;;6.70;61.20;;;;;;5077151;28;20511;-64
2022/03/15 09:00:39;;;;;;;16.27;12.60;;;6.70;61.20;;;;;;5074008;28;21971;-65
2022/03/15 09:03:04;;;;;;;15.18;12.52;;;6.80;61.20;;;;;;5078030;28;20050;-65
2022/03/15 09:05:30;;;;;;;13.63;11.95;;;6.70;61.30;;;;;;5078493;28;20099;-64
2022/03/15 09:07:58;;;;;;;10.68;7.45;;;6.80;61.40;;;;;;5074915;28;20016;-64
2022/03/15 09:10:24;;;;;;;12.10;10.48;;;6.70;61.40;;;;;;5076030;28;20032;-64
2022/03/15 09:12:52;;;;;;;15.60;11.48;;;6.70;61.60;;;;;;5075419;28;20043;-64
2022/03/15 09:15:19;;;;;;;12.50;7.90;;;6.80;61.70;;;;;;5079529;28;20104;-64
2022/03/15 09:17:45;;;;;;;11.73;10.15;;;6.70;61.50;;;;;;5076953;28;20025;-64
2022/03/15 09:20:11;;;;;;;13.93;11.57;;;6.80;61.50;;;;;;5079773;28;20480;-64
2022/03/15 09:22:37;;;;;;;15.80;12.05;;;6.80;61.50;;;;;;5074817;28;20094;-64
2022/03/15 09:25:04;;;;;;;11.90;8.45;;;6.80;61.50;;;;;;5069363;28;20031;-65
2022/03/15 09:27:30;;;;;;;14.18;11.75;;;6.80;61.50;;;;;;5068624;28;20038;-64
2022/03/15 09:29:56;;;;;;;16.20;11.35;;;6.80;61.80;;;;;;5073034;28;20024;-63
2022/03/15 09:32:22;;;;;;;14.88;13.20;;;6.80;61.70;;;;;;5071350;28;20441;-64
2022/03/15 09:34:48;;;;;;;17.27;12.48;;;6.90;61.70;;;;;;5067860;28;20020;-64
2022/03/15 09:37:13;;;;;;;14.88;12.50;;;6.90;61.50;;;;;;5078241;28;20056;-64
2022/03/15 09:39:39;;;;;;;14.93;12.85;;;6.90;61.40;;;;;;5072784;28;20031;-64
2022/03/15 09:42:08;;;;;;;15.13;12.55;;;6.90;61.40;;;;;;5069864;28;20035;-64
2022/03/15 09:44:37;;;;;;;14.52;11.68;;;6.90;61.40;;;;;;5080555;28;20990;-63
2022/03/15 09:47:05;;;;;;;12.77;11.43;;;7.00;61.40;;;;;;5076588;28;20485;-63
2022/03/15 09:49:32;;;;;;;13.48;11.63;;;7.00;61.40;;;;;;5083615;28;20068;-63
2022/03/15 09:51:59;;;;;;;11.88;8.10;;;7.00;61.40;;;;;;5084261;28;20032;-63
2022/03/15 09:54:26;;;;;;;13.52;10.75;;;7.00;61.30;;;;;;5083184;28;20036;-64
2022/03/15 09:56:53;;;;;;;13.45;11.73;;;7.00;61.40;;;;;;5084779;28;20082;-65
2022/03/15 09:59:21;;;;;;;12.60;11.13;;;7.00;61.30;;;;;;5087631;28;20656;-63
2022/03/15 10:01:50;;;;;;;12.55;11.20;;;7.10;61.10;;;;;;5079177;28;20028;-63
2022/03/15 10:04:21;;;;;;;17.55;11.98;;;7.10;61.00;;;;;;5085078;28;20027;-62
2022/03/15 10:06:48;;;;;;;14.43;8.90;;;7.20;60.90;;;;;;5088374;28;20024;-64
2022/03/15 10:09:14;;;;;;;13.48;11.85;;;7.10;60.80;;;;;;5078709;28;20047;-64
2022/03/15 10:11:41;;;;;;;12.43;11.13;;;7.20;61.00;;;;;;5075529;28;20033;-64
2022/03/15 10:14:07;;;;;;;16.67;11.65;;;7.20;60.70;;;;;;5074636;28;20058;-64
2022/03/15 10:16:41;;;;;;;13.70;11.65;;;7.30;60.60;;;;;;5084320;28;20032;-64
2022/03/15 10:19:08;;;;;;;14.93;10.88;;;7.30;61.30;;;;;;5086708;28;20510;-64
2022/03/15 10:21:54;;;;;;;16.10;11.73;;;7.30;60.40;;;;;;5083707;28;20077;-64
2022/03/15 10:24:25;;;;;;;14.88;11.70;;;7.40;60.40;;;;;;5078387;28;20380;-64
2022/03/15 10:26:52;;;;;;;;;;;7.40;60.40;;;;;;5082120;28;20032;-64
2022/03/15 10:29:19;;;;;;;12.45;7.18;;;7.30;60.40;;;;;;5077918;28;19920;-64
2022/03/15 10:31:45;;;;;;;12.30;10.10;;;7.30;60.50;;;;;;5074721;28;20016;-64
2022/03/15 10:34:13;;;;;;;14.68;11.32;;;7.40;60.60;;;;;;5078318;28;20381;-64
2022/03/15 10:36:44;;;;;;;13.15;10.57;;;7.40;60.30;;;;;;5079450;28;20040;-64
2022/03/15 10:39:12;;;;;;;10.05;7.03;;;7.50;60.20;;;;;;5074828;28;20039;-64
2022/03/15 10:41:51;;;;;;;14.00;10.07;;;7.40;60.20;;;;;;5072997;28;20032;-64
2022/03/15 10:44:23;;;;;;;11.93;9.52;;;7.50;60.40;;;;;;5077059;28;20865;-65
2022/03/15 10:47:01;;;;;;;12.13;10.13;;;7.50;60.00;;;;;;5075861;28;20020;-65
2022/03/15 10:49:28;;;;;;;9.50;6.43;;;7.60;59.70;;;;;;5073626;28;20082;-65
2022/03/15 10:51:54;;;;;;;10.63;9.25;;;7.50;59.70;;;;;;5075029;28;20070;-64
2022/03/15 10:54:24;;;;;;;13.73;10.45;;;7.60;59.80;;;;;;5079524;28;20468;-64
2022/03/15 10:56:59;;;;;;;10.73;9.32;;;7.60;59.60;;;;;;5075782;28;20028;-64
2022/03/15 10:59:25;;;;;;;13.63;9.80;;;7.70;59.50;;;;;;5076924;28;20143;-66
2022/03/15 11:01:52;;;;;;;10.23;8.82;;;7.70;59.40;;;;;;5077728;28;20564;-67
2022/03/15 11:04:20;;;;;;;13.23;7.00;;;7.70;59.30;;;;;;5074228;28;20025;-65
2022/03/15 11:06:50;;;;;;;10.70;9.30;;;7.70;59.30;;;;;;5086751;28;20981;-64
2022/03/15 11:09:24;;;;;;;14.25;10.38;;;7.70;59.40;;;;;;5079639;28;20027;-63
2022/03/15 11:12:02;;;;;;;13.73;7.78;;;7.80;59.20;;;;;;5081938;28;20079;-66
2022/03/15 11:14:41;;;;;;;12.95;10.00;;;7.80;59.40;;;;;;5081888;28;20096;-65
2022/03/15 11:17:13;;;;;;;12.23;10.07;;;7.80;59.50;;;;;;5082460;28;20036;-65
2022/03/15 11:19:44;;;;;;;12.23;10.63;;;7.90;59.50;;;;;;5079312;28;20057;-65
2022/03/15 11:22:11;;;;;;;;;;;7.90;59.40;;;;;;5079858;28;20031;-64
2022/03/15 11:24:43;;;;;;;11.95;9.55;;;7.90;59.50;;;;;;5080252;28;19908;-65
2022/03/15 11:27:14;;;;;;;10.52;6.57;;;7.90;59.50;;;;;;5079164;28;20480;-64
2022/03/15 11:29:42;;;;;;;11.55;5.57;;;7.90;59.50;;;;;;5078515;28;20498;-65
2022/03/15 11:32:10;;;;;;;10.40;8.10;;;7.90;59.60;;;;;;5084537;28;20031;-64
2022/03/15 11:34:40;;;;;;;11.55;9.45;;;7.90;59.60;;;;;;5086735;28;20032;-65
2022/03/15 11:37:10;;;;;;;13.35;9.57;;;8.00;59.50;;;;;;5089000;28;20059;-66
2022/03/15 11:39:38;;;;;;;12.85;9.25;;;8.10;59.50;;;;;;5087663;28;20028;-66
2022/03/15 11:42:08;;;;;;;10.77;8.35;;;8.10;59.20;;;;;;5083394;28;20044;-64
2022/03/15 11:44:41;;;;;;;11.02;5.93;;;8.10;59.00;;;;;;5085530;28;20054;-65
2022/03/15 11:47:22;;;;;;;11.85;8.07;;;8.10;59.20;;;;;;5082615;28;20028;-65
2022/03/15 11:50:05;;;;;;;11.05;8.57;;;8.10;59.20;;;;;;5083521;28;21137;-65
2022/03/15 11:52:50;;;;;;;10.57;8.65;;;8.10;58.90;;;;;;5081185;28;20483;-65
2022/03/15 11:55:30;;;;;;;9.55;7.88;;;8.20;59.00;;;;;;5085150;28;20036;-65
2022/03/15 11:58:03;;;;;;;8.77;7.50;;;8.20;58.80;;;;;;5085235;28;20024;-65
2022/03/15 12:00:37;;;;;;;9.75;5.95;;;8.20;58.90;;;;;;5086019;28;20032;-65
2022/03/15 12:03:06;;;;;;;8.13;7.20;;;8.20;59.00;;;;;;5090016;28;20024;-64
2022/03/15 12:05:42;;;;;;;8.93;7.47;;;8.20;59.30;;;;;;5088080;28;20507;-65
2022/03/15 12:08:12;;;;;;;9.13;7.30;;;8.30;59.30;;;;;;5076739;28;20020;-65
2022/03/15 12:10:55;;;;;;;9.52;8.40;;;8.30;59.30;;;;;;5079783;28;20028;-64
2022/03/15 12:13:39;;;;;;;8.70;7.35;;;8.30;59.40;;;;;;5077928;28;20086;-66
2022/03/15 12:16:13;;;;;;;9.50;7.95;;;8.30;59.50;;;;;;5083872;28;20032;-65
2022/03/15 12:19:06;;;;;;;8.40;7.50;;;8.30;59.40;;;;;;5084955;28;20044;-65
2022/03/15 12:21:46;;;;;;;8.75;7.35;;;8.30;59.10;;;;;;5084478;28;20711;-64
2022/03/15 12:24:16;;;;;;;6.50;4.50;;;8.30;58.90;;;;;;5083603;28;20031;-64
2022/03/15 12:26:47;;;;;;;8.43;6.28;;;8.30;58.90;;;;;;5081908;28;20032;-63
2022/03/15 12:29:14;;;;;;;7.57;5.10;;;8.40;58.70;;;;;;5085105;28;20105;-64
2022/03/15 12:31:47;;;;;;;7.93;6.50;;;8.30;58.80;;;;;;5078860;28;20158;-64
2022/03/15 12:34:15;;;;;;;8.63;6.93;;;8.40;58.90;;;;;;5080347;28;20028;-64
2022/03/15 12:36:57;;;;;;;9.07;6.75;;;8.50;58.80;;;;;;5079855;28;20483;-65
2022/03/15 12:39:26;;;;;;;7.57;6.55;;;8.50;58.70;;;;;;5082929;28;20024;-65
2022/03/15 12:42:08;;;;;;;6.75;4.53;;;8.60;58.60;;;;;;5089950;28;20126;-65